Time;durP1;ratioP1;P1;durP2;ratioP2;P2;SDS_P1;SDS_P2;PMS_P1;PMS_P2;Temp;Humidity;BMP_temperature;BMP_pressure;BME280_temperature;BME280_humidity;BME280_pressure;Samples;Min_cycle;Max_cycle;Signal;HPM_P1;HPM_P2
2023/06/19 00:03:00;;;;;;;5.70;3.08;;;27.20;41.10;;;;;;6240783;28;20064;-71
2023/06/19 00:06:01;;;;;;;7.45;3.40;;;27.20;41.00;;;;;;6240068;28;20087;-72
2023/06/19 00:09:02;;;;;;;8.63;3.10;;;27.10;41.00;;;;;;6240703;28;20045;-71
2023/06/19 00:12:04;;;;;;;4.78;2.75;;;27.00;41.10;;;;;;6241093;28;20364;-71
2023/06/19 00:15:05;;;;;;;8.20;3.30;;;27.00;41.20;;;;;;6256043;28;20033;-71
2023/06/19 00:18:06;;;;;;;7.57;3.15;;;27.00;41.20;;;;;;6239545;28;20104;-72
2023/06/19 00:21:08;;;;;;;4.22;2.70;;;26.90;41.50;;;;;;6241032;28;20097;-71
2023/06/19 00:24:10;;;;;;;4.18;2.80;;;26.90;41.60;;;;;;6239883;28;20068;-72
2023/06/19 00:27:11;;;;;;;4.80;3.08;;;26.90;41.50;;;;;;6238322;28;20113;-70
2023/06/19 00:30:12;;;;;;;4.25;3.00;;;27.00;41.50;;;;;;6239640;28;20081;-71
2023/06/19 00:33:13;;;;;;;4.95;3.03;;;27.00;41.40;;;;;;6255925;28;20044;-71
2023/06/19 00:36:16;;;;;;;7.00;3.47;;;27.10;41.40;;;;;;6255584;28;20030;-72
2023/06/19 00:39:17;;;;;;;5.60;3.10;;;27.10;41.50;;;;;;6256045;28;20355;-71
2023/06/19 00:42:18;;;;;;;4.70;2.78;;;27.00;41.60;;;;;;6255649;28;20127;-71
2023/06/19 00:45:20;;;;;;;5.38;3.00;;;27.00;41.90;;;;;;6239514;28;20473;-72
2023/06/19 00:48:21;;;;;;;5.38;2.70;;;26.90;42.10;;;;;;6257507;28;20084;-71
2023/06/19 00:51:22;;;;;;;10.73;2.55;;;26.80;42.20;;;;;;6245990;28;20098;-71
2023/06/19 00:54:22;;;;;;;4.75;2.92;;;26.80;42.40;;;;;;6260698;28;20040;-70
2023/06/19 00:57:24;;;;;;;4.90;3.08;;;26.80;42.40;;;;;;6244009;28;20108;-70
2023/06/19 01:00:24;;;;;;;5.05;2.80;;;26.80;42.50;;;;;;6260035;28;20554;-71
2023/06/19 01:03:26;;;;;;;4.50;2.85;;;26.70;42.50;;;;;;6243395;28;20036;-70
2023/06/19 01:06:38;;;;;;;6.68;3.17;;;26.80;42.60;;;;;;6245822;28;20029;-71
2023/06/19 01:09:51;;;;;;;6.43;2.90;;;26.80;42.50;;;;;;6243472;28;20029;-71
2023/06/19 01:12:59;;;;;;;7.80;3.70;;;26.90;42.60;;;;;;6259447;28;20099;-70
2023/06/19 01:16:02;;;;;;;7.53;3.13;;;26.80;42.50;;;;;;6260717;28;20044;-70
2023/06/19 01:19:05;;;;;;;8.95;3.30;;;26.90;42.70;;;;;;6245684;28;20029;-71
2023/06/19 01:22:07;;;;;;;9.20;2.83;;;26.90;42.70;;;;;;6244732;28;20032;-72
2023/06/19 01:25:09;;;;;;;8.05;3.30;;;26.90;42.60;;;;;;6227837;28;20178;-72
2023/06/19 01:28:12;;;;;;;7.25;3.17;;;27.00;42.60;;;;;;6260652;28;20045;-72
2023/06/19 01:31:17;;;;;;;7.20;3.00;;;26.90;42.70;;;;;;6243914;28;20453;-72
2023/06/19 01:34:20;;;;;;;5.57;2.97;;;26.80;43.00;;;;;;6244872;28;20029;-70
2023/06/19 01:37:23;;;;;;;6.75;3.00;;;26.80;43.20;;;;;;6260961;28;20136;-70
2023/06/19 01:40:25;;;;;;;5.75;3.67;;;26.80;43.30;;;;;;6268213;28;20083;-70
2023/06/19 01:43:31;;;;;;;4.82;3.38;;;26.80;43.80;;;;;;6256277;28;20033;-71
2023/06/19 01:46:32;;;;;;;4.50;3.40;;;26.90;43.30;;;;;;6257732;28;20119;-72
2023/06/19 01:49:34;;;;;;;10.18;3.30;;;26.80;43.20;;;;;;6252762;28;20462;-72
2023/06/19 01:52:38;;;;;;;6.80;3.50;;;26.80;43.40;;;;;;6252334;28;20030;-71
2023/06/19 01:55:41;;;;;;;7.60;3.53;;;26.70;43.60;;;;;;6262089;28;20063;-71
2023/06/19 01:58:41;;;;;;;6.18;3.40;;;26.70;43.70;;;;;;6261253;28;20158;-72
2023/06/19 02:01:42;;;;;;;10.98;3.88;;;26.60;43.70;;;;;;6244458;28;20025;-72
2023/06/19 02:04:44;;;;;;;7.78;3.40;;;26.50;43.80;;;;;;6261015;28;20048;-71
2023/06/19 02:07:45;;;;;;;5.15;3.38;;;26.60;43.80;;;;;;6243733;28;20037;-70
2023/06/19 02:10:46;;;;;;;5.28;2.90;;;26.60;43.80;;;;;;6242764;28;20041;-71
2023/06/19 02:13:46;;;;;;;6.30;2.80;;;26.50;43.80;;;;;;6243065;28;20534;-71
2023/06/19 02:16:47;;;;;;;7.18;3.08;;;26.60;44.00;;;;;;6242398;28;20022;-71
2023/06/19 02:19:48;;;;;;;6.30;3.25;;;26.50;44.00;;;;;;6241611;28;20041;-71
2023/06/19 02:22:49;;;;;;;5.65;2.92;;;26.50;44.10;;;;;;6242784;28;20047;-71
2023/06/19 02:25:50;;;;;;;7.65;3.35;;;26.50;44.20;;;;;;6258281;28;20424;-70
2023/06/19 02:28:51;;;;;;;6.97;2.80;;;26.50;44.30;;;;;;6257462;28;20033;-72
2023/06/19 02:31:52;;;;;;;5.88;2.78;;;26.40;44.40;;;;;;6257666;28;20033;-71
2023/06/19 02:34:53;;;;;;;5.25;3.10;;;26.40;44.60;;;;;;6241411;28;20142;-72
2023/06/19 02:37:54;;;;;;;4.85;2.90;;;26.40;44.70;;;;;;6258385;28;20037;-71
2023/06/19 02:40:57;;;;;;;7.10;3.40;;;26.30;44.70;;;;;;6259551;28;20032;-71
2023/06/19 02:43:58;;;;;;;9.77;3.30;;;26.30;44.90;;;;;;6225598;28;20473;-71
2023/06/19 02:46:58;;;;;;;6.95;3.42;;;26.20;44.90;;;;;;6258556;28;20048;-72
2023/06/19 02:50:01;;;;;;;8.20;2.80;;;26.30;44.90;;;;;;6257895;28;20084;-73
2023/06/19 02:53:01;;;;;;;9.65;3.15;;;26.30;44.90;;;;;;6243027;28;20030;-71
2023/06/19 02:56:03;;;;;;;8.32;3.40;;;26.30;44.90;;;;;;6258489;28;20040;-71
2023/06/19 02:59:05;;;;;;;4.30;3.15;;;26.30;44.90;;;;;;6241601;28;20116;-71
2023/06/19 03:02:06;;;;;;;6.28;3.13;;;26.30;45.00;;;;;;6242581;28;20053;-70
2023/06/19 03:05:09;;;;;;;4.97;3.00;;;26.20;45.30;;;;;;6260599;28;20095;-71
2023/06/19 03:08:10;;;;;;;4.88;3.22;;;26.10;45.40;;;;;;6264340;28;20461;-71
2023/06/19 03:11:11;;;;;;;6.47;3.40;;;26.10;45.70;;;;;;6241919;28;20033;-71
2023/06/19 03:14:12;;;;;;;4.70;3.17;;;26.10;45.80;;;;;;6241057;28;20032;-71
2023/06/19 03:17:14;;;;;;;12.63;3.97;;;26.00;45.80;;;;;;6257258;28;20098;-70
2023/06/19 03:20:14;;;;;;;4.93;2.88;;;25.90;46.00;;;;;;6226209;28;20476;-71
2023/06/19 03:23:23;;;;;;;;;;;25.90;46.20;;;;;;6242708;28;20434;-71
2023/06/19 03:26:24;;;;;;;7.18;3.53;;;25.80;46.20;;;;;;6257663;28;19925;-72
2023/06/19 03:29:26;;;;;;;6.82;3.67;;;25.80;46.30;;;;;;6257003;28;20057;-70
2023/06/19 03:32:35;;;;;;;7.05;3.67;;;25.80;46.70;;;;;;6256637;28;20029;-72
2023/06/19 03:35:36;;;;;;;6.30;3.40;;;25.70;46.90;;;;;;6257256;28;20061;-72
2023/06/19 03:38:38;;;;;;;9.38;3.65;;;25.60;47.10;;;;;;6240492;28;20029;-71
2023/06/19 03:41:39;;;;;;;7.95;3.22;;;25.60;47.20;;;;;;6256409;28;20037;-71
2023/06/19 03:44:40;;;;;;;8.70;3.83;;;25.70;47.10;;;;;;6257242;28;20072;-71
2023/06/19 03:47:41;;;;;;;9.52;3.40;;;25.70;47.00;;;;;;6256636;28;20262;-73
2023/06/19 03:50:42;;;;;;;9.48;3.60;;;25.70;47.00;;;;;;6256559;28;20037;-71
2023/06/19 03:53:43;;;;;;;5.95;3.55;;;25.70;47.00;;;;;;6239670;28;20079;-70
2023/06/19 03:56:44;;;;;;;7.80;3.65;;;25.80;46.90;;;;;;6257188;28;20156;-72
2023/06/19 03:59:45;;;;;;;11.50;3.60;;;25.80;46.70;;;;;;6240114;28;20123;-71
2023/06/19 04:02:46;;;;;;;6.18;3.30;;;25.90;46.60;;;;;;6239853;28;20033;-70
2023/06/19 04:05:47;;;;;;;5.38;3.00;;;26.00;46.60;;;;;;6256252;28;20523;-74
2023/06/19 04:08:48;;;;;;;7.40;3.40;;;25.90;46.50;;;;;;6238138;28;20039;-70
2023/06/19 04:11:49;;;;;;;7.88;3.67;;;25.90;46.60;;;;;;6240812;28;20029;-70
2023/06/19 04:14:50;;;;;;;5.45;3.55;;;25.90;46.60;;;;;;6256428;28;20247;-71
2023/06/19 04:17:50;;;;;;;6.20;3.75;;;25.90;46.60;;;;;;6239460;28;20780;-72
2023/06/19 04:20:52;;;;;;;11.07;3.72;;;25.80;46.70;;;;;;6240299;28;20156;-71
2023/06/19 04:23:52;;;;;;;8.02;3.08;;;25.80;46.60;;;;;;6255646;28;20041;-71
2023/06/19 04:26:53;;;;;;;8.13;3.50;;;25.80;46.60;;;;;;6223167;28;20076;-70
2023/06/19 04:29:56;;;;;;;7.72;3.42;;;25.90;46.80;;;;;;6240509;28;20049;-71
2023/06/19 04:32:58;;;;;;;6.82;3.17;;;25.90;46.70;;;;;;6238610;28;20477;-71
2023/06/19 04:36:00;;;;;;;6.68;3.25;;;26.00;46.60;;;;;;6247308;28;20049;-71
2023/06/19 04:39:01;;;;;;;7.18;3.67;;;26.00;46.60;;;;;;6231597;28;20037;-71
2023/06/19 04:42:02;;;;;;;9.02;3.80;;;25.90;46.60;;;;;;6238863;28;20116;-71
2023/06/19 04:45:07;;;;;;;8.07;3.50;;;25.90;46.60;;;;;;6240993;28;20158;-71
2023/06/19 04:48:07;;;;;;;8.32;4.15;;;25.90;46.70;;;;;;6255889;28;20072;-71
2023/06/19 04:51:08;;;;;;;12.27;3.45;;;25.90;46.80;;;;;;6238038;28;20037;-72
2023/06/19 04:54:09;;;;;;;4.72;3.20;;;26.00;46.80;;;;;;6238542;28;20446;-71
2023/06/19 04:57:10;;;;;;;9.43;3.60;;;25.90;46.80;;;;;;6244849;28;20040;-70
2023/06/19 05:00:12;;;;;;;11.65;3.65;;;25.90;46.80;;;;;;6242182;28;20036;-71
2023/06/19 05:03:13;;;;;;;7.43;3.80;;;25.90;47.00;;;;;;6239241;28;20037;-71
2023/06/19 05:06:14;;;;;;;9.90;3.72;;;26.00;46.90;;;;;;6216698;28;20129;-72
2023/06/19 05:09:16;;;;;;;8.55;3.42;;;26.00;46.80;;;;;;6239174;28;20108;-71
2023/06/19 05:12:17;;;;;;;10.95;3.33;;;25.90;46.80;;;;;;6237813;28;20048;-71
2023/06/19 05:15:18;;;;;;;6.90;3.67;;;26.00;46.80;;;;;;6238140;28;20029;-71
2023/06/19 05:18:19;;;;;;;12.57;3.80;;;26.00;46.70;;;;;;6243469;28;20033;-73
2023/06/19 05:21:20;;;;;;;6.32;3.63;;;26.00;46.80;;;;;;6246391;28;20407;-71
2023/06/19 05:24:21;;;;;;;6.22;3.75;;;26.00;46.80;;;;;;6239608;28;20137;-73
2023/06/19 05:27:22;;;;;;;7.03;3.80;;;26.10;46.70;;;;;;6238121;28;20053;-73
2023/06/19 05:30:23;;;;;;;9.80;3.95;;;26.20;46.50;;;;;;6238757;28;20037;-72
2023/06/19 05:33:24;;;;;;;7.55;3.60;;;26.20;46.50;;;;;;6254669;28;20041;-72
2023/06/19 05:36:25;;;;;;;13.02;4.10;;;26.20;46.50;;;;;;6235175;28;20029;-71
2023/06/19 05:39:26;;;;;;;8.00;4.10;;;26.30;46.60;;;;;;6250762;28;20402;-73
2023/06/19 05:42:27;;;;;;;5.45;3.30;;;26.30;46.60;;;;;;6231538;28;20033;-72
2023/06/19 05:45:28;;;;;;;9.95;3.83;;;26.40;46.50;;;;;;6248516;28;20432;-72
2023/06/19 05:48:31;;;;;;;10.65;3.80;;;26.40;46.50;;;;;;6236249;28;20036;-73
2023/06/19 05:51:32;;;;;;;9.20;3.90;;;26.40;46.40;;;;;;6256134;28;20037;-71
2023/06/19 05:54:32;;;;;;;6.13;3.47;;;26.40;46.50;;;;;;6241381;28;20028;-71
2023/06/19 05:57:33;;;;;;;9.15;3.80;;;26.40;46.60;;;;;;6235372;28;20339;-73
2023/06/19 06:00:34;;;;;;;8.38;3.83;;;26.30;46.70;;;;;;6244175;28;20112;-72
2023/06/19 06:03:35;;;;;;;9.13;3.50;;;26.30;46.90;;;;;;6241986;28;20028;-72
2023/06/19 06:06:36;;;;;;;9.07;3.75;;;26.20;46.90;;;;;;6245002;28;20037;-71
2023/06/19 06:09:37;;;;;;;10.48;4.20;;;26.20;47.00;;;;;;6241248;28;20440;-72
2023/06/19 06:12:38;;;;;;;6.85;3.92;;;26.30;47.00;;;;;;6214670;28;20033;-71
2023/06/19 06:15:39;;;;;;;10.00;3.70;;;26.30;46.90;;;;;;6218988;28;20419;-72
2023/06/19 06:18:40;;;;;;;8.95;4.00;;;26.40;46.70;;;;;;6217595;28;20080;-71
2023/06/19 06:21:41;;;;;;;16.00;3.78;;;26.60;46.50;;;;;;6229026;28;20518;-72
2023/06/19 06:24:41;;;;;;;6.63;3.58;;;26.70;46.30;;;;;;6258320;28;20073;-71
2023/06/19 06:27:42;;;;;;;6.88;4.13;;;26.80;46.20;;;;;;6242764;28;20040;-72
2023/06/19 06:30:44;;;;;;;8.15;4.03;;;26.80;46.00;;;;;;6240891;28;20129;-71
2023/06/19 06:33:45;;;;;;;9.63;3.85;;;26.90;46.00;;;;;;6242818;28;20412;-72
2023/06/19 06:36:45;;;;;;;16.33;4.15;;;26.80;46.10;;;;;;6243999;28;20083;-71
2023/06/19 06:39:46;;;;;;;10.15;3.92;;;26.70;46.20;;;;;;6241464;28;20435;-72
2023/06/19 06:42:49;;;;;;;18.65;4.15;;;26.50;46.50;;;;;;6242417;28;20037;-72
2023/06/19 06:45:50;;;;;;;4.93;3.33;;;26.40;46.70;;;;;;6257628;28;20040;-73
2023/06/19 06:48:51;;;;;;;5.55;3.45;;;26.40;46.80;;;;;;6242660;28;20029;-71
2023/06/19 06:51:52;;;;;;;8.13;3.97;;;26.40;46.90;;;;;;6242953;28;20072;-71
2023/06/19 06:54:53;;;;;;;17.60;8.85;;;26.40;47.10;;;;;;6243196;28;20052;-71
2023/06/19 06:57:54;;;;;;;8.93;4.97;;;26.30;47.50;;;;;;6243374;28;20500;-72
2023/06/19 07:00:58;;;;;;;12.75;4.93;;;26.30;48.10;;;;;;6258985;28;20244;-72
2023/06/19 07:03:59;;;;;;;8.50;3.65;;;26.30;48.30;;;;;;6242966;28;20025;-73
2023/06/19 07:06:59;;;;;;;13.23;4.85;;;26.30;48.20;;;;;;6244046;28;20364;-72
2023/06/19 07:10:00;;;;;;;13.93;4.32;;;26.20;48.20;;;;;;6242408;28;20064;-72
2023/06/19 07:13:01;;;;;;;10.18;3.60;;;26.20;48.30;;;;;;6242571;28;20500;-73
2023/06/19 07:16:04;;;;;;;8.52;4.47;;;26.10;48.60;;;;;;6242665;28;20033;-73
2023/06/19 07:19:05;;;;;;;8.57;4.28;;;26.10;48.40;;;;;;6243043;28;20033;-73
2023/06/19 07:22:06;;;;;;;10.77;3.90;;;26.10;48.50;;;;;;6257847;28;20037;-72
2023/06/19 07:25:08;;;;;;;9.15;4.00;;;26.10;48.90;;;;;;6257753;28;20104;-72
2023/06/19 07:28:09;;;;;;;9.77;4.70;;;26.00;49.10;;;;;;6242623;28;20090;-71
2023/06/19 07:31:10;;;;;;;11.25;4.55;;;26.10;49.20;;;;;;6257542;28;20061;-70
2023/06/19 07:34:11;;;;;;;11.95;4.28;;;26.10;49.30;;;;;;6241573;28;20055;-72
2023/06/19 07:37:17;;;;;;;13.20;4.70;;;26.10;49.70;;;;;;6242457;28;20422;-73
2023/06/19 07:40:18;;;;;;;11.30;5.20;;;26.10;50.00;;;;;;6240609;28;20037;-73
2023/06/19 07:43:19;;;;;;;14.48;4.72;;;26.20;50.10;;;;;;6256304;28;20038;-72
2023/06/19 07:46:19;;;;;;;8.77;4.82;;;26.30;50.20;;;;;;6256877;28;20052;-71
2023/06/19 07:49:20;;;;;;;18.38;5.18;;;26.40;50.30;;;;;;6240382;28;20122;-71
2023/06/19 07:52:21;;;;;;;14.90;5.15;;;26.40;50.20;;;;;;6231678;28;20055;-71
2023/06/19 07:55:22;;;;;;;14.32;5.18;;;26.40;50.30;;;;;;6232095;28;20059;-73
2023/06/19 07:58:23;;;;;;;13.73;5.30;;;26.50;50.30;;;;;;6216964;28;20034;-72
2023/06/19 08:01:24;;;;;;;24.80;6.05;;;26.50;50.40;;;;;;6217291;28;20037;-74
2023/06/19 08:04:25;;;;;;;9.57;4.95;;;26.60;49.80;;;;;;6232123;28;20161;-72
2023/06/19 08:07:26;;;;;;;9.50;4.78;;;26.80;50.40;;;;;;6240050;28;20414;-71
2023/06/19 08:10:27;;;;;;;14.02;5.00;;;26.80;50.30;;;;;;6239136;28;20029;-71
2023/06/19 08:13:28;;;;;;;7.68;4.82;;;26.90;50.10;;;;;;6239610;28;20512;-72
2023/06/19 08:16:29;;;;;;;12.43;4.63;;;26.80;50.00;;;;;;6256169;28;20037;-72
2023/06/19 08:19:29;;;;;;;13.77;4.88;;;26.80;50.00;;;;;;6256378;28;20565;-73
2023/06/19 08:22:31;;;;;;;15.02;5.18;;;26.80;50.00;;;;;;6240962;28;20040;-73
2023/06/19 08:25:31;;;;;;;14.23;5.10;;;26.80;50.00;;;;;;6239249;28;20107;-73
2023/06/19 08:28:32;;;;;;;12.77;5.05;;;26.80;49.90;;;;;;6241053;28;20046;-72
2023/06/19 08:31:33;;;;;;;21.00;4.55;;;26.90;49.70;;;;;;6240651;28;20032;-73
2023/06/19 08:34:35;;;;;;;10.90;4.63;;;27.00;49.40;;;;;;6240988;28;20065;-71
2023/06/19 08:37:36;;;;;;;14.98;5.20;;;27.10;49.20;;;;;;6239671;28;20072;-73
2023/06/19 08:40:37;;;;;;;11.15;4.78;;;27.20;48.80;;;;;;6256979;28;20568;-72
2023/06/19 08:43:41;;;;;;;16.13;4.35;;;27.30;48.30;;;;;;6265105;28;20320;-73
2023/06/19 08:46:41;;;;;;;18.30;4.68;;;27.40;48.10;;;;;;6263431;28;20085;-72
2023/06/19 08:49:42;;;;;;;14.73;5.13;;;27.50;48.00;;;;;;6263516;28;20037;-71
2023/06/19 08:52:44;;;;;;;10.93;5.18;;;27.50;48.10;;;;;;6251665;28;20033;-72
2023/06/19 08:55:45;;;;;;;12.20;5.53;;;27.50;48.10;;;;;;6255806;28;20033;-74
2023/06/19 08:58:47;;;;;;;12.90;5.65;;;27.60;48.20;;;;;;6241282;28;20033;-73
2023/06/19 09:01:52;;;;;;;10.95;6.25;;;27.60;48.20;;;;;;6255523;28;20033;-73
2023/06/19 09:05:10;;;;;;;11.20;5.93;;;27.70;48.10;;;;;;6255990;28;20462;-73
2023/06/19 09:08:13;;;;;;;9.40;4.78;;;27.70;48.10;;;;;;6239508;28;20037;-72
2023/06/19 09:11:20;;;;;;;11.38;5.22;;;27.70;48.10;;;;;;6211457;28;20490;-72
2023/06/19 09:14:31;;;;;;;10.93;5.22;;;27.70;48.00;;;;;;6261302;28;20083;-72
2023/06/19 09:17:32;;;;;;;12.80;5.70;;;27.80;47.60;;;;;;6244457;28;20513;-72
2023/06/19 09:20:45;;;;;;;13.52;5.93;;;27.90;47.40;;;;;;6245179;28;20510;-72
2023/06/19 09:23:46;;;;;;;16.30;5.50;;;28.00;47.10;;;;;;6244767;28;20041;-72
2023/06/19 09:26:47;;;;;;;10.88;6.00;;;28.20;46.40;;;;;;6243657;28;20060;-71
2023/06/19 09:29:50;;;;;;;16.65;6.45;;;28.20;46.00;;;;;;6245309;28;20034;-71
2023/06/19 09:32:51;;;;;;;17.08;6.43;;;28.40;46.60;;;;;;6261541;28;20060;-74
2023/06/19 09:35:55;;;;;;;12.50;6.70;;;28.50;46.00;;;;;;6243377;28;20044;-74
2023/06/19 09:38:56;;;;;;;11.90;5.80;;;28.60;46.00;;;;;;6244798;28;20119;-71
2023/06/19 09:41:59;;;;;;;14.23;5.72;;;28.80;45.80;;;;;;6260245;28;20111;-73
2023/06/19 09:45:04;;;;;;;12.35;5.93;;;29.00;45.40;;;;;;6226764;28;20037;-73
2023/06/19 09:48:10;;;;;;;11.85;5.38;;;29.30;44.90;;;;;;6243165;28;20116;-72
2023/06/19 09:51:36;;;;;;;8.00;5.38;;;29.60;44.40;;;;;;6244313;28;20071;-72
2023/06/19 09:54:39;;;;;;;9.90;5.00;;;29.90;43.80;;;;;;6244892;28;20030;-73
2023/06/19 09:57:41;;;;;;;13.38;5.63;;;30.00;43.10;;;;;;6259335;28;20419;-73
2023/06/19 10:00:43;;;;;;;7.38;4.35;;;30.20;43.00;;;;;;6260021;28;20074;-73
2023/06/19 10:03:45;;;;;;;11.02;5.30;;;30.20;42.30;;;;;;6244965;28;20029;-72
2023/06/19 10:06:47;;;;;;;7.47;5.03;;;30.20;42.30;;;;;;6244576;28;20128;-72
2023/06/19 10:10:06;;;;;;;10.00;6.05;;;30.20;42.40;;;;;;6243997;28;20034;-72
2023/06/19 10:13:16;;;;;;;11.82;5.68;;;30.20;42.00;;;;;;6243819;28;20036;-72
2023/06/19 10:16:23;;;;;;;11.10;5.93;;;30.20;41.80;;;;;;6242759;28;20029;-73
2023/06/19 10:19:24;;;;;;;8.48;4.88;;;30.20;41.70;;;;;;6259864;28;20044;-72
2023/06/19 10:22:30;;;;;;;9.82;5.88;;;30.20;41.70;;;;;;6243389;28;20038;-72
2023/06/19 10:25:34;;;;;;;14.10;6.47;;;30.20;41.40;;;;;;6244188;28;20517;-71
2023/06/19 10:28:35;;;;;;;10.15;5.22;;;30.10;41.20;;;;;;6244273;28;20650;-73
2023/06/19 10:31:36;;;;;;;16.10;5.50;;;30.10;41.30;;;;;;6259241;28;20080;-72
2023/06/19 10:34:37;;;;;;;8.35;5.35;;;30.10;41.00;;;;;;6242646;28;20115;-72
2023/06/19 10:37:38;;;;;;;10.68;5.95;;;30.00;41.10;;;;;;6243675;28;20100;-72
2023/06/19 10:40:39;;;;;;;7.68;6.03;;;30.00;41.40;;;;;;6241913;28;20034;-72
2023/06/19 10:43:40;;;;;;;11.73;5.80;;;30.10;41.60;;;;;;6244021;28;20025;-73
2023/06/19 10:46:41;;;;;;;7.72;5.25;;;30.20;41.70;;;;;;6244303;28;20102;-71
2023/06/19 10:49:42;;;;;;;12.48;5.57;;;30.30;41.80;;;;;;6244834;28;20120;-71
2023/06/19 10:52:44;;;;;;;9.25;5.68;;;30.40;41.80;;;;;;6243757;28;20508;-74
2023/06/19 10:55:45;;;;;;;8.00;5.20;;;30.50;41.70;;;;;;6258728;28;20350;-72
2023/06/19 10:58:46;;;;;;;10.50;5.82;;;30.60;41.50;;;;;;6241704;28;20040;-72
2023/06/19 11:01:48;;;;;;;8.45;5.30;;;30.60;41.50;;;;;;6241704;28;20137;-72
2023/06/19 11:04:53;;;;;;;7.85;5.25;;;30.50;41.60;;;;;;6243380;28;20044;-74
2023/06/19 11:07:55;;;;;;;9.55;4.93;;;30.60;41.40;;;;;;6232872;28;20100;-74
2023/06/19 11:10:56;;;;;;;8.80;5.32;;;31.50;40.30;;;;;;6233436;28;20399;-74
2023/06/19 11:13:57;;;;;;;10.82;5.95;;;32.50;38.90;;;;;;6236813;28;20084;-73
2023/06/19 11:16:57;;;;;;;11.90;5.60;;;33.10;37.50;;;;;;6241453;28;20050;-72
2023/06/19 11:19:59;;;;;;;10.75;4.95;;;33.50;36.50;;;;;;6241634;28;20045;-72
2023/06/19 11:23:01;;;;;;;9.15;5.20;;;33.90;35.80;;;;;;6240752;28;20071;-72
2023/06/19 11:26:03;;;;;;;14.13;4.70;;;34.40;35.10;;;;;;6241166;28;20279;-73
2023/06/19 11:29:18;;;;;;;8.15;4.70;;;34.90;34.10;;;;;;6241140;28;20037;-73
2023/06/19 11:32:24;;;;;;;12.27;4.22;;;35.10;33.60;;;;;;6239915;28;20630;-73
2023/06/19 11:35:34;;;;;;;6.07;4.28;;;35.10;32.90;;;;;;6242101;28;20638;-74
2023/06/19 11:38:38;;;;;;;9.55;3.95;;;35.30;32.20;;;;;;6240978;28;20032;-72
2023/06/19 11:41:40;;;;;;;11.23;4.65;;;35.60;31.90;;;;;;6240893;28;20066;-74
2023/06/19 11:45:05;;;;;;;9.55;4.63;;;36.10;31.10;;;;;;6240992;28;20113;-72
2023/06/19 11:48:08;;;;;;;4.68;3.60;;;36.50;30.00;;;;;;6258573;28;20055;-73
2023/06/19 11:51:09;;;;;;;8.98;4.07;;;36.70;29.30;;;;;;6257235;28;20084;-72
2023/06/19 11:54:11;;;;;;;6.38;4.00;;;36.90;28.80;;;;;;6216273;28;20034;-73
2023/06/19 11:57:12;;;;;;;7.70;3.33;;;37.30;28.10;;;;;;6216348;28;20042;-73
2023/06/19 12:00:15;;;;;;;5.72;3.70;;;37.50;27.80;;;;;;6232315;28;20058;-74
2023/06/19 12:03:16;;;;;;;9.20;3.95;;;37.70;27.40;;;;;;6232177;28;20036;-73
2023/06/19 12:06:20;;;;;;;13.25;4.13;;;37.80;27.60;;;;;;6232368;28;20478;-72
2023/06/19 12:09:21;;;;;;;5.15;3.58;;;38.10;27.40;;;;;;6256808;28;20129;-72
2023/06/19 12:12:21;;;;;;;9.30;3.80;;;38.60;27.00;;;;;;6207539;28;20037;-73
2023/06/19 12:15:24;;;;;;;6.22;3.72;;;38.90;26.50;;;;;;6257152;28;20068;-73
2023/06/19 12:18:25;;;;;;;7.63;3.90;;;39.10;26.30;;;;;;6241609;28;20366;-73
2023/06/19 12:21:26;;;;;;;6.25;3.58;;;39.60;26.20;;;;;;6240185;28;20140;-74
2023/06/19 12:24:27;;;;;;;7.15;3.92;;;39.90;25.90;;;;;;6256181;28;20037;-73
2023/06/19 12:27:27;;;;;;;5.85;3.28;;;40.10;25.40;;;;;;6240154;28;20041;-76
2023/06/19 12:30:28;;;;;;;8.15;3.78;;;40.20;25.40;;;;;;6240515;28;20095;-74
2023/06/19 12:33:33;;;;;;;8.95;3.85;;;40.20;25.20;;;;;;6241767;28;20044;-73
2023/06/19 12:36:34;;;;;;;5.93;3.72;;;40.30;25.30;;;;;;6241910;28;20443;-72
2023/06/19 12:39:35;;;;;;;4.20;3.33;;;40.50;25.00;;;;;;6223901;28;20048;-74
2023/06/19 12:42:36;;;;;;;6.75;3.83;;;40.70;24.90;;;;;;6241871;28;20029;-73
2023/06/19 12:45:37;;;;;;;6.95;4.05;;;40.80;24.70;;;;;;6246738;28;20037;-73
2023/06/19 12:48:38;;;;;;;8.27;3.63;;;40.90;24.40;;;;;;6244786;28;20110;-74
2023/06/19 12:51:39;;;;;;;5.05;3.63;;;41.00;24.30;;;;;;6246685;28;20029;-73
2023/06/19 12:54:42;;;;;;;4.30;3.53;;;41.00;24.20;;;;;;6246406;28;20040;-75
2023/06/19 12:57:44;;;;;;;9.18;4.15;;;41.10;24.20;;;;;;6246163;28;20037;-74
2023/06/19 13:00:45;;;;;;;5.10;4.38;;;41.10;23.90;;;;;;6246510;28;20025;-74
2023/06/19 13:03:46;;;;;;;11.40;3.85;;;40.50;24.40;;;;;;6244467;28;20022;-74
2023/06/19 13:06:47;;;;;;;4.55;3.55;;;39.60;25.10;;;;;;6245200;28;20025;-72
2023/06/19 13:09:50;;;;;;;5.22;3.38;;;38.90;25.70;;;;;;6270834;28;20710;-73
2023/06/19 13:12:51;;;;;;;6.72;4.10;;;38.40;26.10;;;;;;6257236;28;20088;-74
2023/06/19 13:15:52;;;;;;;4.28;3.63;;;38.10;26.40;;;;;;6245010;28;20143;-74
2023/06/19 13:18:53;;;;;;;5.75;4.20;;;38.30;26.40;;;;;;6244746;28;20072;-73
2023/06/19 13:21:53;;;;;;;13.40;4.03;;;38.90;25.80;;;;;;6260935;28;20037;-74
2023/06/19 13:24:54;;;;;;;7.97;3.50;;;38.90;25.70;;;;;;6260750;28;20037;-74
2023/06/19 13:27:55;;;;;;;6.97;3.30;;;39.00;25.60;;;;;;6262059;28;20481;-73
2023/06/19 13:30:56;;;;;;;5.85;3.72;;;39.70;25.10;;;;;;6245195;28;20041;-74
2023/06/19 13:33:58;;;;;;;4.75;3.25;;;40.50;24.50;;;;;;6244135;28;20100;-73
2023/06/19 13:36:59;;;;;;;8.00;3.65;;;40.90;24.10;;;;;;6244129;28;20152;-73
2023/06/19 13:40:01;;;;;;;9.05;4.82;;;41.00;24.10;;;;;;6245219;28;20041;-74
2023/06/19 13:43:03;;;;;;;7.55;3.33;;;41.20;23.90;;;;;;6245999;28;20037;-72
2023/06/19 13:46:05;;;;;;;4.25;3.15;;;40.80;24.10;;;;;;6261111;28;20486;-73
2023/06/19 13:49:06;;;;;;;4.97;3.67;;;40.50;24.40;;;;;;6245143;28;20036;-76
2023/06/19 13:52:07;;;;;;;9.00;4.85;;;40.90;23.90;;;;;;6260165;28;20484;-75
2023/06/19 13:55:08;;;;;;;8.75;3.47;;;40.70;23.90;;;;;;6243322;28;20029;-75
2023/06/19 13:58:09;;;;;;;4.85;3.25;;;39.90;24.50;;;;;;6245418;28;20556;-73
2023/06/19 14:01:10;;;;;;;5.65;3.63;;;39.30;25.20;;;;;;6260067;28;20497;-73
2023/06/19 14:04:12;;;;;;;5.63;3.55;;;39.80;25.00;;;;;;6268865;28;20029;-74
2023/06/19 14:07:13;;;;;;;5.22;3.35;;;41.20;23.90;;;;;;6262430;28;20038;-72
2023/06/19 14:10:13;;;;;;;5.80;3.30;;;42.90;22.80;;;;;;6243478;28;20041;-73
2023/06/19 14:13:14;;;;;;;5.25;3.30;;;44.10;21.80;;;;;;6261950;28;20068;-73
2023/06/19 14:16:16;;;;;;;6.25;3.35;;;45.10;21.00;;;;;;6245469;28;20419;-73
2023/06/19 14:19:17;;;;;;;3.85;3.10;;;45.90;20.30;;;;;;6255153;28;20040;-73
2023/06/19 14:22:18;;;;;;;5.72;3.15;;;46.50;19.60;;;;;;6253810;28;20426;-72
2023/06/19 14:25:19;;;;;;;5.80;3.20;;;46.90;19.20;;;;;;6242771;28;20036;-73
2023/06/19 14:28:19;;;;;;;7.15;3.63;;;47.20;19.70;;;;;;6244391;28;20390;-72
2023/06/19 14:31:21;;;;;;;7.15;3.08;;;47.20;19.00;;;;;;6244317;28;20474;-73
2023/06/19 14:34:22;;;;;;;5.15;2.78;;;47.20;18.80;;;;;;6244574;28;20042;-72
2023/06/19 14:37:23;;;;;;;5.00;3.13;;;47.10;18.80;;;;;;6244513;28;20406;-72
2023/06/19 14:40:24;;;;;;;4.32;3.40;;;47.00;18.70;;;;;;6243124;28;20033;-73
2023/06/19 14:43:26;;;;;;;4.57;2.65;;;46.90;18.50;;;;;;6242718;28;20033;-73
2023/06/19 14:46:27;;;;;;;4.47;3.25;;;46.40;18.60;;;;;;6245141;28;20029;-73
2023/06/19 14:49:28;;;;;;;6.05;3.20;;;45.90;18.90;;;;;;6243448;28;20036;-73
2023/06/19 14:52:29;;;;;;;7.68;3.05;;;45.60;19.10;;;;;;6242364;28;20029;-75
2023/06/19 14:55:30;;;;;;;4.57;3.38;;;45.50;19.20;;;;;;6245007;28;20120;-71
2023/06/19 14:58:32;;;;;;;5.38;2.97;;;45.50;19.00;;;;;;6243175;28;20047;-74
2023/06/19 15:01:34;;;;;;;16.02;3.03;;;45.60;19.00;;;;;;6242986;28;20083;-73
2023/06/19 15:04:34;;;;;;;6.13;2.83;;;45.60;18.70;;;;;;6242221;28;20438;-71
2023/06/19 15:07:35;;;;;;;6.13;3.00;;;45.40;18.70;;;;;;6254326;28;20036;-73
2023/06/19 15:10:37;;;;;;;4.30;3.17;;;45.20;18.90;;;;;;6244392;28;20527;-73
2023/06/19 15:13:38;;;;;;;5.90;3.30;;;45.00;19.10;;;;;;6244466;28;20385;-73
2023/06/19 15:16:39;;;;;;;4.43;3.15;;;44.80;19.20;;;;;;6278167;28;20040;-73
2023/06/19 15:19:40;;;;;;;6.93;3.55;;;44.60;19.30;;;;;;6269426;28;20246;-73
2023/06/19 15:22:41;;;;;;;5.15;3.15;;;44.30;19.50;;;;;;6251208;28;20037;-72
2023/06/19 15:25:43;;;;;;;8.50;3.45;;;44.10;19.70;;;;;;6245537;28;20029;-73
2023/06/19 15:28:44;;;;;;;6.28;3.38;;;43.90;19.80;;;;;;6248567;28;20486;-74
2023/06/19 15:31:45;;;;;;;6.30;3.22;;;43.60;20.00;;;;;;6265350;28;20029;-75
2023/06/19 15:34:47;;;;;;;11.30;3.25;;;43.40;20.20;;;;;;6266496;28;20049;-73
2023/06/19 15:37:48;;;;;;;8.32;3.17;;;43.00;20.40;;;;;;6249880;28;20347;-72
2023/06/19 15:40:49;;;;;;;6.45;3.00;;;42.70;20.60;;;;;;6262841;28;20041;-74
2023/06/19 15:43:50;;;;;;;5.47;3.10;;;42.20;21.00;;;;;;6249217;28;20047;-74